createdAt,value
2022-10-13T00:04:34.348Z,7.87
2022-10-13T00:09:37.258Z,7.71
2022-10-13T00:14:40.225Z,8.62
2022-10-13T00:19:43.156Z,11.58
2022-10-13T00:24:51.899Z,12.26
2022-10-13T00:29:54.845Z,10.71
2022-10-13T00:35:00.688Z,9.82
2022-10-13T00:40:04.726Z,9.25
2022-10-13T00:45:25.868Z,8.81
2022-10-13T00:50:42.068Z,8.39
2022-10-13T00:55:46.274Z,8.06
2022-10-13T01:00:53.244Z,7.82
2022-10-13T01:06:00.475Z,7.61
2022-10-13T01:11:41.023Z,7.44
2022-10-13T01:17:04.029Z,8.57
2022-10-13T01:22:50.533Z,11.63
2022-10-13T01:28:05.509Z,11.55
2022-10-13T01:33:30.740Z,10.10
2022-10-13T01:39:04.380Z,9.28
2022-10-13T01:44:49.271Z,8.71
2022-10-13T01:49:55.300Z,8.25
2022-10-13T01:54:58.405Z,7.92
2022-10-13T02:00:11.639Z,7.66
2022-10-13T02:05:49.280Z,7.42
2022-10-13T02:11:22.332Z,7.23
2022-10-13T02:16:29.316Z,8.18
2022-10-13T02:21:33.757Z,11.17
2022-10-13T02:26:38.425Z,11.58
2022-10-13T02:31:42.940Z,10.06
2022-10-13T02:36:45.913Z,9.19
2022-10-13T02:41:48.822Z,8.62
2022-10-13T02:46:51.787Z,8.17
2022-10-13T02:51:55.211Z,7.82
2022-10-13T02:56:58.125Z,7.54
2022-10-13T03:02:01.186Z,7.30
2022-10-13T03:07:04.445Z,7.09
2022-10-13T03:12:07.636Z,7.90
2022-10-13T03:17:13.516Z,10.91
2022-10-13T03:22:16.888Z,11.66
2022-10-13T03:27:20.950Z,10.09
2022-10-13T03:32:23.831Z,9.12
2022-10-13T03:37:30.801Z,8.47
2022-10-13T03:42:36.948Z,8.00
2022-10-13T03:47:39.883Z,7.65
2022-10-13T03:52:42.817Z,7.34
2022-10-13T03:57:45.762Z,7.08
2022-10-13T04:02:49.932Z,6.83
2022-10-13T04:07:52.872Z,7.69
2022-10-13T04:12:55.883Z,10.62
2022-10-13T04:17:58.859Z,11.45
2022-10-13T04:29:06.938Z,8.84
2022-10-13T04:34:11.653Z,8.29
2022-10-13T04:39:14.580Z,7.86
2022-10-13T04:44:17.541Z,7.47
2022-10-13T04:49:20.470Z,7.18
2022-10-13T04:54:23.362Z,6.97
2022-10-13T04:59:26.361Z,7.65
2022-10-13T05:04:29.496Z,10.59
2022-10-13T05:09:32.443Z,11.27
2022-10-13T05:14:35.550Z,9.76
2022-10-13T05:19:38.887Z,8.85
2022-10-13T05:24:41.816Z,8.29
2022-10-13T05:29:44.740Z,7.87
2022-10-13T05:34:49.436Z,7.55
2022-10-13T05:39:52.354Z,7.26
2022-10-13T05:44:55.332Z,7.02
2022-10-13T05:49:58.273Z,7.79
2022-10-13T05:55:05.282Z,10.70
2022-10-13T06:00:13.523Z,11.51
2022-10-13T06:05:20.323Z,10.04
2022-10-13T06:10:23.843Z,9.19
2022-10-13T06:15:28.334Z,8.70
2022-10-13T06:20:31.543Z,8.35
2022-10-13T06:25:34.512Z,8.12
2022-10-13T06:30:38.344Z,8.89
2022-10-13T06:35:41.610Z,11.76
2022-10-13T06:40:44.517Z,13.24
2022-10-13T06:45:47.430Z,12.26
2022-10-13T06:50:50.361Z,11.01
2022-10-13T06:56:00.663Z,10.32
2022-10-13T07:01:04.655Z,9.84
2022-10-13T07:06:08.254Z,9.47
2022-10-13T07:11:16.313Z,9.19
2022-10-13T07:16:19.625Z,10.05
2022-10-13T07:21:23.051Z,12.82
2022-10-13T07:26:25.964Z,14.38
2022-10-13T07:31:29.106Z,14.34
2022-10-13T07:36:33.798Z,12.76
2022-10-13T07:41:37.530Z,11.84
2022-10-13T07:46:40.279Z,11.26
2022-10-13T07:51:44.240Z,10.83
2022-10-13T07:56:47.203Z,10.51
2022-10-13T08:01:50.196Z,10.28
2022-10-13T08:06:53.159Z,10.11
2022-10-13T08:12:00.598Z,11.25
2022-10-13T08:17:04.767Z,14.09
2022-10-13T08:22:10.391Z,14.84
2022-10-13T08:27:22.144Z,13.32
2022-10-13T08:32:25.248Z,12.39
2022-10-13T08:37:28.448Z,11.85
2022-10-13T08:42:31.857Z,11.49
2022-10-13T08:47:45.525Z,11.22
2022-10-13T08:53:13.124Z,12.08
2022-10-13T08:58:26.009Z,14.89
2022-10-13T09:03:30.847Z,15.27
2022-10-13T09:08:53.436Z,13.86
2022-10-13T09:14:04.040Z,13.03
2022-10-13T09:19:34.269Z,12.55
2022-10-13T09:24:37.191Z,12.21
2022-10-13T09:29:40.890Z,12.00
2022-10-13T09:34:43.920Z,11.83
2022-10-13T09:39:47.612Z,11.72
2022-10-13T09:45:01.490Z,12.60
2022-10-13T09:50:18.981Z,15.39
2022-10-13T09:55:35.476Z,16.81
2022-10-13T10:00:39.887Z,15.75
2022-10-13T10:05:51.949Z,14.65
2022-10-13T10:10:55.987Z,14.05
2022-10-13T10:16:11.801Z,13.66
2022-10-13T10:21:43.393Z,13.40
2022-10-13T10:26:55.529Z,13.19
2022-10-13T10:32:16.027Z,14.57
2022-10-13T10:37:55.571Z,16.70
2022-10-13T10:43:22.713Z,15.61
2022-10-13T10:48:37.950Z,14.74
2022-10-13T10:54:06.467Z,14.32
2022-10-13T10:59:43.202Z,14.03
2022-10-13T11:04:49.072Z,13.82
2022-10-13T11:09:51.917Z,13.69
2022-10-13T11:14:57.708Z,13.59
2022-10-13T11:20:01.055Z,13.51
2022-10-13T11:25:42.684Z,13.44
2022-10-13T11:31:05.355Z,13.33
2022-10-13T11:36:32.868Z,13.27
2022-10-13T11:42:09.565Z,13.25
2022-10-13T11:47:25.088Z,13.26
2022-10-13T11:52:50.231Z,13.29
2022-10-13T11:58:20.394Z,13.34
2022-10-13T12:03:48.478Z,13.39
2022-10-13T12:08:52.844Z,13.43
2022-10-13T12:13:57.099Z,13.45
2022-10-13T12:19:20.602Z,13.46
2022-10-13T12:24:27.173Z,13.47
2022-10-13T12:29:34.894Z,13.46
2022-10-13T12:34:40.037Z,13.46
2022-10-13T12:39:43.537Z,13.45
2022-10-13T12:44:49.009Z,13.47
2022-10-13T12:49:51.950Z,13.47
2022-10-13T12:54:56.829Z,13.48
2022-10-13T12:59:59.759Z,13.46
2022-10-13T13:05:02.741Z,13.43
2022-10-13T13:10:08.729Z,13.40
2022-10-13T13:15:33.407Z,13.38
2022-10-13T13:20:37.948Z,13.35
2022-10-13T13:25:41.110Z,13.33
2022-10-13T13:30:44.678Z,13.36
2022-10-13T13:35:49.108Z,13.36
2022-10-13T13:40:51.997Z,13.33
2022-10-13T13:45:56.109Z,13.31
2022-10-13T13:50:59.201Z,13.30
2022-10-13T13:56:02.321Z,13.27
2022-10-13T14:01:05.637Z,13.22
2022-10-13T14:06:08.939Z,13.19
2022-10-13T14:11:11.898Z,13.17
2022-10-13T14:16:18.162Z,13.14
2022-10-13T14:21:21.104Z,13.13
2022-10-13T14:26:24.074Z,13.10
2022-10-13T14:31:27.103Z,13.06
2022-10-13T14:36:30.123Z,13.02
2022-10-13T14:41:33.044Z,12.99
2022-10-13T14:46:35.919Z,12.96
2022-10-13T14:51:39.099Z,12.92
2022-10-13T14:56:41.999Z,12.87
2022-10-13T15:01:46.107Z,12.80
2022-10-13T15:06:48.981Z,12.71
2022-10-13T15:11:51.912Z,12.62
2022-10-13T15:16:54.807Z,12.53
2022-10-13T15:21:57.769Z,12.44
2022-10-13T15:27:00.686Z,12.35
2022-10-13T15:32:13.734Z,13.22
2022-10-13T15:37:19.658Z,15.86
2022-10-13T15:42:22.925Z,16.55
2022-10-13T15:47:26.014Z,15.19
2022-10-13T15:52:34.495Z,14.32
2022-10-13T15:57:38.981Z,13.76
2022-10-13T16:02:43.902Z,13.31
2022-10-13T16:07:46.884Z,12.91
2022-10-13T16:12:50.156Z,12.56
2022-10-13T16:17:53.382Z,12.28
2022-10-13T16:22:56.259Z,12.01
2022-10-13T16:28:02.119Z,11.77
2022-10-13T16:33:05.082Z,11.57
2022-10-13T16:38:08.032Z,12.39
2022-10-13T16:43:10.961Z,15.04
2022-10-13T16:48:13.884Z,15.73
2022-10-13T16:53:16.770Z,14.30
2022-10-13T16:58:19.745Z,13.41
2022-10-13T17:03:22.624Z,12.85
2022-10-13T17:08:25.557Z,12.40
2022-10-13T17:13:30.065Z,12.01
2022-10-13T17:18:33.024Z,11.68
2022-10-13T17:23:36.817Z,11.39
2022-10-13T17:28:40.982Z,11.13
2022-10-13T17:33:45.146Z,10.90
2022-10-13T17:38:49.237Z,11.72
2022-10-13T17:43:53.746Z,14.42
2022-10-13T17:48:58.143Z,15.01
2022-10-13T17:54:01.294Z,13.53
2022-10-13T17:59:04.457Z,12.63
2022-10-13T18:04:12.238Z,12.05
2022-10-13T18:09:19.431Z,11.60
2022-10-13T18:14:24.769Z,11.21
2022-10-13T18:19:27.863Z,10.90
2022-10-13T18:24:31.174Z,10.63
2022-10-13T18:29:34.111Z,10.41
2022-10-13T18:34:37.036Z,11.22
2022-10-13T18:39:39.927Z,13.95
2022-10-13T18:44:42.784Z,14.70
2022-10-13T18:49:45.734Z,13.25
2022-10-13T18:54:48.594Z,12.34
2022-10-13T18:59:51.482Z,11.77
2022-10-13T19:04:54.360Z,11.33
2022-10-13T19:09:57.452Z,10.96
2022-10-13T19:15:00.363Z,10.64
2022-10-13T19:20:04.042Z,10.39
2022-10-13T19:25:07.350Z,11.11
2022-10-13T19:30:10.884Z,13.79
2022-10-13T19:35:13.877Z,14.62
2022-10-13T19:40:16.996Z,13.15
2022-10-13T19:45:19.929Z,12.16
2022-10-13T19:50:22.841Z,11.57
2022-10-13T19:55:29.205Z,11.08
2022-10-13T20:00:32.503Z,10.68
2022-10-13T20:05:38.935Z,10.35
2022-10-13T20:10:43.377Z,10.06
2022-10-13T20:15:46.389Z,10.79
2022-10-13T20:20:49.411Z,13.51
2022-10-13T20:25:52.310Z,14.10
2022-10-13T20:30:55.231Z,12.59
2022-10-13T20:36:00.800Z,11.67
2022-10-13T20:41:19.105Z,11.08
2022-10-13T20:46:23.846Z,10.61
2022-10-13T20:51:27.001Z,10.23
2022-10-13T20:56:30.001Z,9.92
2022-10-13T21:01:32.998Z,9.66
2022-10-13T21:06:36.398Z,10.27
2022-10-13T21:11:39.826Z,13.05
2022-10-13T21:16:42.741Z,13.77
2022-10-13T21:21:46.661Z,12.24
2022-10-13T21:26:50.189Z,11.30
2022-10-13T21:31:53.201Z,10.73
2022-10-13T21:36:56.098Z,10.29
2022-10-13T21:41:59.015Z,9.92
2022-10-13T21:47:01.990Z,9.60
2022-10-13T21:52:05.179Z,9.35
2022-10-13T21:57:08.080Z,10.01
2022-10-13T22:02:11.029Z,12.76
2022-10-13T22:07:13.926Z,13.42
2022-10-13T22:12:16.901Z,11.92
2022-10-13T22:17:20.246Z,11.02
2022-10-13T22:22:26.362Z,10.44
2022-10-13T22:27:31.974Z,9.99
2022-10-13T22:32:34.868Z,9.58
2022-10-13T22:37:37.772Z,9.24
2022-10-13T22:42:40.699Z,9.83
2022-10-13T22:47:43.553Z,12.62
2022-10-13T22:52:46.456Z,13.41
2022-10-13T22:57:49.355Z,11.83
2022-10-13T23:02:52.352Z,10.89
2022-10-13T23:07:55.360Z,10.31
2022-10-13T23:12:58.297Z,9.87
2022-10-13T23:18:01.253Z,9.49
2022-10-13T23:23:04.272Z,9.15
2022-10-13T23:28:07.198Z,8.88
2022-10-13T23:33:10.174Z,9.67
2022-10-13T23:38:13.174Z,12.46
2022-10-13T23:43:16.509Z,13.46
2022-10-13T23:48:19.445Z,11.97
2022-10-13T23:53:22.424Z,10.86
2022-10-13T23:58:25.355Z,10.23
